CheckWX is a tool to help pilots better visualize weather data.  It is not intended as a substitute for an official pre-flight weather briefing.

23:07:33 UTC

KHII METAR
Lake Havasu City Airport
Lake Havasu City, Arizona, USA
Current

33 mins ago

KHII 242235Z AUTO 33016G21KT 10SM CLR 33/M05 A2979 RMK AO2
Observed
May-24 @ 22:35 UTC
Wind
  • 330° at 16 KTS
  • Gusting to 21 KTS
Visibility
Flight Rules
VFR
Cloud Levels
  • Clear skies
Temperature
33°C / 91°F
Dewpoint
-5°C / 23°F
Humidity
8%
Altimeter
29.79" Hg
Pressure
1008.82 hPa
Previous

53 mins ago

KHII 242215Z AUTO 34011G20KT 10SM CLR 33/M06 A2980 RMK AO2
Observed
May-24 @ 22:15 UTC
Wind
  • 340° at 11 KTS
  • Gusting to 20 KTS
Visibility
Flight Rules
VFR
Cloud Levels
  • Clear skies
Temperature
33°C / 91°F
Dewpoint
-6°C / 21°F
Humidity
8%
Altimeter
29.8" Hg
Pressure
1009.12 hPa
Previous

1 hour ago

KHII 242155Z AUTO 32014G20KT 10SM CLR 33/M05 A2981 RMK AO2
Observed
May-24 @ 21:55 UTC
Wind
  • 320° at 14 KTS
  • Gusting to 20 KTS
Visibility
Flight Rules
VFR
Cloud Levels
  • Clear skies
Temperature
33°C / 91°F
Dewpoint
-5°C / 23°F
Humidity
8%
Altimeter
29.81" Hg
Pressure
1009.52 hPa